• Join FlightAware (Why Join?)
  • Login
  • US Flag 
03:42AM EDT


 

Airport Tracker/Info


-or-


 

Live Flight TrackerFlight Track Log ✈ N352VA ✈ 29-Jul-2013 ✈ KGUS - KGYY

Flight Track Log - Related Links

Times and Time Zones

All times are in EDT time to prevent confusion due to time zone crossing. See the N352VA flight status page for this flight to view local times or setup timezone preferences in your user account.

Time Position Orientation Groundspeed Altitude Reporting Facility
EDT Latitude Longitude Course Direction KTS MPH feet Rate Location/Type
09:32AM 40.5872 -86.0061 316° Northwest 98 113 3,900  Level Chicago Center
09:33AM 40.5944 -86.0142 320° Northwest 99 114 3,900  Level Chicago Center
09:34AM 40.6133 -86.0408 313° West 99 114 3,900  Level Chicago Center
09:35AM 40.6356 -86.0706 315° West 97 112 3,900  Level Chicago Center
09:36AM 40.6533 -86.0942 315° West 94 108 3,900  Level Chicago Center
09:37AM 40.6717 -86.1203 313° West 95 109 3,900  Level Chicago Center
09:38AM 40.8084 -86.3571 316° Northwest  Level Estimated
09:38AM 40.6864 -86.1483 305° West 93 107 3,900  Level Chicago Center
09:39AM 40.7014 -86.1747 307° West 92 106 3,900  Level Chicago Center
09:40AM 40.7222 -86.2053 312° West 93 107 3,900  Level Chicago Center
09:41AM 40.7392 -86.2328 309° West 94 108 3,900  Level Chicago Center
09:42AM 40.7531 -86.2603 304° West 92 106 3,900  Level Chicago Center
09:43AM 40.7672 -86.2864 306° West 90 104 3,900  Level Chicago Center
09:44AM 40.7850 -86.3094 316° Northwest 89 102 4,000  Climbing Chicago Center
09:45AM 40.8031 -86.3328 316° Northwest 89 102 4,000 -60 Level Chicago Center
09:46AM 40.8253 -86.3617 315° West 91 105 3,900 -120 Descending Chicago Center
09:47AM 40.8453 -86.3869 316° Northwest 94 108 3,800 -120 Descending Chicago Center
09:48AM 40.8650 -86.4111 317° Northwest 96 110 3,700 -60 Descending Chicago Center
09:49AM 40.8842 -86.4358 316° Northwest 96 110 3,700  Level Chicago Center
09:50AM 40.9014 -86.4622 311° West 96 110 3,700  Level Chicago Center
09:51AM 40.9208 -86.4853 318° Northwest 95 109 3,700  Level Chicago Center
09:52AM 40.9417 -86.5172 311° West 96 110 3,700  Level Chicago Center
09:53AM 40.9594 -86.5403 316° Northwest 93 107 3,700  Level Chicago Center
09:55AM 40.9789 -86.5622 320° Northwest 92 106 3,700  Level Chicago Center